createdAt,value
2018-04-16T00:01:49.501Z,16.37
2018-04-16T00:04:17.283Z,12.10
2018-04-16T00:06:45.022Z,12.48
2018-04-16T00:09:12.625Z,11.60
2018-04-16T00:11:40.208Z,17.95
2018-04-16T00:14:07.809Z,31.83
2018-04-16T00:16:35.372Z,23.40
2018-04-16T00:19:02.938Z,19.50
2018-04-16T00:21:30.530Z,16.25
2018-04-16T00:23:58.862Z,16.62
2018-04-16T00:26:26.450Z,16.70
2018-04-16T00:28:54.038Z,17.52
2018-04-16T00:31:21.657Z,17.85
2018-04-16T00:36:58.825Z,19.20
2018-04-16T00:39:32.094Z,17.10
2018-04-16T00:42:05.459Z,18.42
2018-04-16T00:44:38.853Z,19.10
2018-04-16T00:47:12.037Z,16.33
2018-04-16T00:49:45.564Z,19.05
2018-04-16T00:52:18.829Z,21.23
2018-04-16T00:54:52.753Z,20.62
2018-04-16T01:00:30.590Z,25.10
2018-04-16T01:03:04.693Z,25.23
2018-04-16T01:05:38.003Z,32.03
2018-04-16T01:08:11.259Z,35.75
2018-04-16T01:10:44.566Z,36.85
2018-04-16T01:13:17.863Z,38.88
2018-04-16T01:15:51.256Z,27.67
2018-04-16T01:18:25.285Z,26.35
2018-04-16T01:20:59.337Z,23.15
2018-04-16T01:23:32.724Z,19.50
2018-04-16T01:26:06.029Z,24.23
2018-04-16T01:28:39.251Z,22.67
2018-04-16T01:31:12.489Z,19.83
2018-04-16T01:33:45.787Z,35.88
2018-04-16T01:36:19.205Z,41.17
2018-04-16T01:38:52.509Z,41.35
2018-04-16T01:41:25.698Z,39.33
2018-04-16T01:43:58.973Z,37.13
2018-04-16T01:46:32.338Z,28.42
2018-04-16T01:49:05.491Z,25.62
2018-04-16T01:51:38.901Z,39.38
2018-04-16T01:54:12.278Z,39.50
2018-04-16T01:56:45.608Z,41.40
2018-04-16T01:59:18.983Z,45.70
2018-04-16T02:01:52.203Z,46.70
2018-04-16T02:04:26.251Z,44.80
2018-04-16T02:07:00.382Z,43.15
2018-04-16T02:09:33.724Z,43.65
2018-04-16T02:12:06.945Z,44.47
2018-04-16T02:14:40.181Z,45.92
2018-04-16T02:17:14.241Z,48.45
2018-04-16T02:19:47.689Z,46.97
2018-04-16T02:22:20.952Z,48.42
2018-04-16T02:24:54.269Z,43.67
2018-04-16T02:27:27.478Z,34.50
2018-04-16T02:30:00.679Z,32.42
2018-04-16T02:32:34.153Z,37.92
2018-04-16T02:35:07.377Z,31.75
2018-04-16T02:37:40.775Z,27.15
2018-04-16T02:40:14.753Z,27.65
2018-04-16T02:42:48.777Z,25.27
2018-04-16T02:48:28.125Z,37.60
2018-04-16T02:51:01.590Z,40.25
2018-04-16T02:53:34.805Z,41.03
2018-04-16T02:56:08.026Z,30.65
2018-04-16T02:58:42.115Z,26.08
2018-04-16T03:01:15.381Z,30.25
2018-04-16T03:03:48.742Z,37.15
2018-04-16T03:06:21.970Z,35.58
2018-04-16T03:08:56.062Z,34.60
2018-04-16T03:11:29.474Z,38.80
2018-04-16T03:14:02.682Z,40.30
2018-04-16T03:16:35.925Z,41.20
2018-04-16T03:22:11.576Z,45.70
2018-04-16T03:24:44.978Z,46.90
2018-04-16T03:27:18.237Z,52.40
2018-04-16T03:29:51.472Z,59.10
2018-04-16T03:32:24.612Z,60.45
2018-04-16T03:34:57.875Z,57.62
2018-04-16T03:37:31.293Z,54.35
2018-04-16T03:40:04.558Z,50.65
2018-04-16T03:42:38.579Z,49.45
2018-04-16T03:45:12.746Z,53.03
2018-04-16T03:47:45.963Z,55.88
2018-04-16T03:50:19.378Z,56.22
2018-04-16T03:52:52.685Z,58.50
2018-04-16T03:55:25.893Z,56.45
2018-04-16T03:57:53.453Z,55.42
2018-04-16T04:00:21.056Z,56.90
2018-04-16T04:02:48.730Z,54.40
2018-04-16T04:05:17.097Z,47.83
2018-04-16T04:07:44.703Z,62.17
2018-04-16T04:10:13.076Z,55.63
2018-04-16T04:12:40.718Z,60.20
2018-04-16T04:15:08.294Z,60.08
2018-04-16T04:17:35.905Z,58.80
2018-04-16T04:20:04.284Z,49.47
2018-04-16T04:22:43.809Z,58.50
2018-04-16T04:25:23.437Z,57.65
2018-04-16T04:28:02.778Z,66.50
2018-04-16T04:30:32.377Z,80.65
2018-04-16T04:33:00.060Z,91.72
2018-04-16T04:35:28.406Z,94.47
2018-04-16T04:37:56.017Z,97.45
2018-04-16T04:40:23.590Z,98.18
2018-04-16T04:42:51.158Z,93.55
2018-04-16T04:45:18.887Z,93.53
2018-04-16T04:47:46.522Z,93.43
2018-04-16T04:50:14.901Z,95.95
2018-04-16T04:52:42.526Z,98.97
2018-04-16T04:55:10.176Z,94.05
2018-04-16T04:57:37.802Z,93.35
2018-04-16T05:00:05.393Z,94.80
2018-04-16T05:02:32.965Z,97.45
2018-04-16T05:05:00.552Z,98.20
2018-04-16T05:07:28.885Z,100.25
2018-04-16T05:09:56.489Z,103.30
2018-04-16T05:12:24.159Z,99.57
2018-04-16T05:14:51.724Z,102.43
2018-04-16T05:17:19.322Z,81.10
2018-04-16T05:19:49.376Z,92.15
2018-04-16T05:22:17.821Z,102.20
2018-04-16T05:24:45.431Z,92.20
2018-04-16T05:27:13.814Z,95.60
2018-04-16T05:29:41.405Z,101.05
2018-04-16T05:32:09.018Z,105.10
2018-04-16T05:34:36.607Z,113.60
2018-04-16T05:37:04.286Z,122.28
2018-04-16T05:39:31.957Z,124.22
2018-04-16T05:41:59.596Z,125.53
2018-04-16T05:44:27.161Z,132.25
2018-04-16T05:46:54.753Z,127.90
2018-04-16T05:49:22.326Z,126.68
2018-04-16T05:51:49.966Z,129.55
2018-04-16T05:54:18.322Z,131.82
2018-04-16T05:56:45.906Z,92.47
2018-04-16T05:59:13.511Z,123.20
2018-04-16T06:01:41.129Z,127.68
2018-04-16T06:04:08.742Z,123.38
2018-04-16T06:06:36.330Z,117.68
2018-04-16T06:09:03.926Z,120.65
2018-04-16T06:11:31.493Z,120.55
2018-04-16T06:13:59.086Z,112.22
2018-04-16T06:16:26.660Z,113.90
2018-04-16T06:18:54.254Z,114.25
2018-04-16T06:21:21.834Z,113.15
2018-04-16T06:23:49.458Z,97.22
2018-04-16T06:26:17.041Z,113.37
2018-04-16T06:28:44.661Z,115.43
2018-04-16T06:31:13.059Z,114.80
2018-04-16T06:33:41.131Z,117.25
2018-04-16T06:36:09.488Z,113.80
2018-04-16T06:38:37.117Z,110.95
2018-04-16T06:41:04.692Z,110.63
2018-04-16T06:43:32.318Z,119.28
2018-04-16T06:45:59.910Z,118.03
2018-04-16T06:48:27.478Z,114.03
2018-04-16T06:50:55.069Z,113.95
2018-04-16T06:53:23.414Z,121.40
2018-04-16T06:55:51.019Z,123.22
2018-04-16T06:58:19.409Z,123.97
2018-04-16T07:00:47.860Z,138.05
2018-04-16T07:03:15.443Z,137.88
2018-04-16T07:05:43.079Z,140.48
2018-04-16T07:08:10.917Z,141.05
2018-04-16T07:10:39.397Z,140.98
2018-04-16T07:13:06.978Z,154.40
2018-04-16T07:15:34.575Z,144.43
2018-04-16T07:18:02.923Z,137.07
2018-04-16T07:20:30.601Z,134.85
2018-04-16T07:22:58.183Z,99.05
2018-04-16T07:25:25.765Z,84.13
2018-04-16T07:27:53.553Z,79.32
2018-04-16T07:30:22.067Z,69.03
2018-04-16T07:32:49.693Z,68.15
2018-04-16T07:35:17.365Z,68.30
2018-04-16T07:37:45.042Z,72.15
2018-04-16T07:40:12.609Z,74.28
2018-04-16T07:42:40.226Z,55.70
2018-04-16T07:45:08.565Z,52.92
2018-04-16T07:47:36.129Z,53.67
2018-04-16T07:50:03.725Z,54.08
2018-04-16T07:52:31.397Z,52.90
2018-04-16T07:54:59.089Z,52.65
2018-04-16T07:57:26.674Z,51.35
2018-04-16T07:59:55.051Z,54.08
2018-04-16T08:02:22.665Z,55.50
2018-04-16T08:04:50.400Z,56.42
2018-04-16T08:07:17.977Z,56.83
2018-04-16T08:09:45.573Z,59.25
2018-04-16T08:12:13.906Z,57.40
2018-04-16T08:14:41.597Z,58.53
2018-04-16T08:17:09.271Z,57.90
2018-04-16T08:19:36.882Z,51.42
2018-04-16T08:22:05.213Z,49.67
2018-04-16T08:24:32.809Z,57.65
2018-04-16T08:27:00.425Z,55.78
2018-04-16T08:29:28.759Z,57.17
2018-04-16T08:31:56.348Z,52.05
2018-04-16T08:34:23.921Z,53.95
2018-04-16T08:36:51.506Z,53.80
2018-04-16T08:39:19.161Z,54.80
2018-04-16T08:41:46.767Z,54.50
2018-04-16T08:44:15.127Z,50.47
2018-04-16T08:46:42.775Z,52.28
2018-04-16T08:49:11.471Z,46.22
2018-04-16T08:51:39.065Z,49.25
2018-04-16T08:54:06.746Z,46.08
2018-04-16T08:56:34.338Z,48.08
2018-04-16T08:59:01.998Z,45.97
2018-04-16T09:01:29.574Z,49.55
2018-04-16T09:03:57.164Z,46.83
2018-04-16T09:06:25.493Z,46.90
2018-04-16T09:08:53.081Z,47.88
2018-04-16T09:11:20.650Z,49.45
2018-04-16T09:13:48.253Z,48.50
2018-04-16T09:16:16.866Z,50.80
2018-04-16T09:18:45.253Z,48.70
2018-04-16T09:21:13.617Z,47.62
2018-04-16T09:23:41.233Z,53.15
2018-04-16T09:26:08.821Z,45.28
2018-04-16T09:28:36.405Z,42.83
2018-04-16T09:31:04.005Z,48.30
2018-04-16T09:33:31.602Z,49.47
2018-04-16T09:35:59.254Z,51.58
2018-04-16T09:38:26.930Z,52.03
2018-04-16T09:40:54.515Z,52.72
2018-04-16T09:43:22.177Z,51.15
2018-04-16T09:45:49.861Z,50.00
2018-04-16T09:48:17.437Z,50.45
2018-04-16T09:50:45.050Z,52.92
2018-04-16T09:53:12.650Z,49.17
2018-04-16T09:55:40.349Z,52.33
2018-04-16T09:58:08.705Z,51.40
2018-04-16T10:00:41.975Z,48.75
2018-04-16T10:03:15.315Z,55.60
2018-04-16T10:05:42.952Z,46.70
2018-04-16T10:08:11.310Z,43.63
2018-04-16T10:10:38.911Z,43.13
2018-04-16T10:13:06.482Z,44.67
2018-04-16T10:15:34.924Z,45.67
2018-04-16T10:18:02.546Z,45.12
2018-04-16T10:20:30.206Z,37.95
2018-04-16T10:22:57.883Z,35.58
2018-04-16T10:25:25.470Z,34.08
2018-04-16T10:27:53.054Z,34.22
2018-04-16T10:30:21.411Z,40.58
2018-04-16T10:32:49.022Z,36.17
2018-04-16T10:35:17.362Z,34.42
2018-04-16T10:37:44.954Z,30.98
2018-04-16T10:40:12.557Z,35.95
2018-04-16T10:42:41.031Z,38.45
2018-04-16T10:45:09.369Z,36.38
2018-04-16T10:47:36.945Z,38.33
2018-04-16T10:50:04.542Z,40.85
2018-04-16T10:52:32.121Z,45.03
2018-04-16T10:54:59.681Z,40.95
2018-04-16T10:57:27.275Z,45.50
2018-04-16T10:59:54.944Z,45.63
2018-04-16T11:02:22.525Z,46.83
2018-04-16T11:04:50.121Z,46.95
2018-04-16T11:07:18.587Z,42.92
2018-04-16T11:09:46.171Z,44.08
2018-04-16T11:12:13.769Z,44.13
2018-04-16T11:14:41.387Z,43.63
2018-04-16T11:17:08.970Z,45.90
2018-04-16T11:19:36.562Z,46.30
2018-04-16T11:22:04.129Z,47.40
2018-04-16T11:24:31.717Z,48.85
2018-04-16T11:27:00.045Z,47.72
2018-04-16T11:29:27.650Z,47.28
2018-04-16T11:31:55.317Z,46.42
2018-04-16T11:34:22.897Z,46.85
2018-04-16T11:36:50.476Z,49.35
2018-04-16T11:39:18.853Z,50.63
2018-04-16T11:41:46.439Z,48.55
2018-04-16T11:44:14.076Z,52.95
2018-04-16T11:46:41.679Z,50.47
2018-04-16T11:49:10.058Z,54.28
2018-04-16T11:51:37.879Z,52.47
2018-04-16T11:54:06.207Z,47.28
2018-04-16T11:56:33.796Z,48.58
2018-04-16T11:59:02.130Z,49.45
2018-04-16T12:01:30.478Z,48.55
2018-04-16T12:03:58.033Z,45.38
2018-04-16T12:06:25.610Z,47.17
2018-04-16T12:08:53.937Z,48.65
2018-04-16T12:11:21.558Z,47.17
2018-04-16T12:13:49.175Z,45.67
2018-04-16T12:16:16.797Z,46.72
2018-04-16T12:18:44.390Z,44.40
2018-04-16T12:21:12.012Z,45.03
2018-04-16T12:23:40.341Z,43.85
2018-04-16T12:26:07.929Z,45.17
2018-04-16T12:28:35.489Z,43.83
2018-04-16T12:31:03.069Z,45.55
2018-04-16T12:33:30.638Z,46.58
2018-04-16T12:35:58.338Z,46.40
2018-04-16T12:38:26.026Z,47.85
2018-04-16T12:40:53.590Z,45.67
2018-04-16T12:43:21.185Z,46.60
2018-04-16T12:45:49.535Z,50.40
2018-04-16T12:48:17.330Z,51.47
2018-04-16T12:50:45.147Z,49.45
2018-04-16T12:53:12.818Z,48.97
2018-04-16T12:55:40.414Z,52.58
2018-04-16T12:58:08.017Z,51.53
2018-04-16T13:00:35.605Z,51.53
2018-04-16T13:03:04.706Z,50.38
2018-04-16T13:05:32.282Z,50.05
2018-04-16T13:07:59.865Z,47.40
2018-04-16T13:10:27.434Z,46.03
2018-04-16T13:12:55.098Z,42.38
2018-04-16T13:15:22.669Z,38.28
2018-04-16T13:17:50.365Z,38.33
2018-04-16T13:20:18.734Z,42.80
2018-04-16T13:22:46.330Z,36.63
2018-04-16T13:25:14.701Z,36.22
2018-04-16T13:27:43.090Z,37.20
2018-04-16T13:30:10.689Z,37.65
2018-04-16T13:32:39.022Z,34.60
2018-04-16T13:35:06.605Z,37.28
2018-04-16T13:37:34.194Z,36.25
2018-04-16T13:40:01.782Z,39.75
2018-04-16T13:42:29.345Z,32.42
2018-04-16T13:44:56.929Z,30.77
2018-04-16T13:47:24.582Z,25.65
2018-04-16T13:49:52.269Z,26.15
2018-04-16T13:52:20.010Z,26.15
2018-04-16T13:54:47.601Z,23.33
2018-04-16T13:57:15.224Z,27.02
2018-04-16T13:59:42.895Z,27.65
2018-04-16T14:02:10.532Z,33.30
2018-04-16T14:04:38.146Z,30.95
2018-04-16T14:07:05.768Z,31.95
2018-04-16T14:09:33.416Z,31.77
2018-04-16T14:12:01.016Z,33.45
2018-04-16T14:14:28.605Z,33.65
2018-04-16T14:16:56.194Z,35.25
2018-04-16T14:19:24.557Z,36.85
2018-04-16T14:21:52.246Z,33.40
2018-04-16T14:24:19.877Z,39.35
2018-04-16T14:26:47.459Z,37.13
2018-04-16T14:29:15.057Z,36.85
2018-04-16T14:31:43.435Z,37.83
2018-04-16T14:34:11.802Z,41.47
2018-04-16T14:36:39.413Z,42.78
2018-04-16T14:39:07.246Z,41.10
2018-04-16T14:41:35.127Z,40.00
2018-04-16T14:44:03.172Z,44.85
2018-04-16T14:46:31.530Z,47.42
2018-04-16T14:48:59.102Z,45.60
2018-04-16T14:51:26.671Z,47.95
2018-04-16T14:53:54.268Z,45.80
2018-04-16T14:56:21.828Z,39.22
2018-04-16T14:58:49.453Z,40.38
2018-04-16T15:01:17.120Z,42.72
2018-04-16T15:03:44.839Z,42.45
2018-04-16T15:06:13.286Z,44.45
2018-04-16T15:08:40.890Z,39.97
2018-04-16T15:11:08.454Z,36.00
2018-04-16T15:13:36.034Z,35.08
2018-04-16T15:16:03.597Z,37.08
2018-04-16T15:18:31.189Z,36.45
2018-04-16T15:20:58.766Z,36.25
2018-04-16T15:23:26.453Z,35.40
2018-04-16T15:25:54.068Z,33.25
2018-04-16T15:28:21.856Z,35.30
2018-04-16T15:30:49.485Z,34.03
2018-04-16T15:33:17.186Z,32.97
2018-04-16T15:35:45.813Z,31.87
2018-04-16T15:38:13.604Z,29.52
2018-04-16T15:40:41.250Z,26.02
2018-04-16T15:43:09.351Z,25.40
2018-04-16T15:45:37.998Z,27.25
2018-04-16T15:48:05.717Z,28.40
2018-04-16T15:50:33.317Z,29.85
2018-04-16T15:53:00.887Z,29.73
2018-04-16T15:55:28.469Z,32.22
2018-04-16T15:57:56.041Z,35.50
2018-04-16T16:00:23.626Z,34.38
2018-04-16T16:02:51.210Z,34.22
2018-04-16T16:05:19.581Z,33.97
2018-04-16T16:07:47.955Z,33.90
2018-04-16T16:10:15.578Z,32.28
2018-04-16T16:12:43.161Z,33.60
2018-04-16T16:15:10.859Z,31.02
2018-04-16T16:17:38.444Z,33.78
2018-04-16T16:20:06.019Z,32.25
2018-04-16T16:22:33.701Z,30.70
2018-04-16T16:25:01.265Z,31.45
2018-04-16T16:27:28.959Z,30.33
2018-04-16T16:29:56.521Z,30.37
2018-04-16T16:32:24.105Z,29.25
2018-04-16T16:34:51.696Z,29.87
2018-04-16T16:37:19.301Z,31.23
2018-04-16T16:39:47.705Z,29.75
2018-04-16T16:42:16.126Z,31.70
2018-04-16T16:44:44.540Z,29.70
2018-04-16T16:47:13.045Z,28.33
2018-04-16T16:49:41.654Z,26.60
2018-04-16T16:52:09.270Z,29.73
2018-04-16T16:54:36.838Z,31.85
2018-04-16T16:57:04.626Z,34.35
2018-04-16T16:59:32.197Z,31.92
2018-04-16T17:01:59.820Z,31.92
2018-04-16T17:04:28.169Z,29.77
2018-04-16T17:06:55.763Z,31.15
2018-04-16T17:09:24.140Z,30.92
2018-04-16T17:11:51.738Z,29.63
2018-04-16T17:14:20.123Z,32.08
2018-04-16T17:16:47.776Z,31.92
2018-04-16T17:19:16.151Z,32.28
2018-04-16T17:21:43.734Z,32.83
2018-04-16T17:24:11.322Z,32.72
2018-04-16T17:26:38.903Z,34.45
2018-04-16T17:29:07.266Z,32.30
2018-04-16T17:31:34.948Z,32.05
2018-04-16T17:34:02.533Z,35.08
2018-04-16T17:36:30.223Z,35.45
2018-04-16T17:38:58.617Z,35.13
2018-04-16T17:41:26.273Z,35.10
2018-04-16T17:43:53.941Z,33.80
2018-04-16T17:46:22.317Z,32.95
2018-04-16T17:48:50.715Z,33.13
2018-04-16T17:51:18.477Z,30.42
2018-04-16T17:53:46.120Z,30.90
2018-04-16T17:56:13.761Z,31.00
2018-04-16T17:58:41.368Z,30.80
2018-04-16T18:01:08.969Z,31.45
2018-04-16T18:03:36.544Z,31.75
2018-04-16T18:06:04.127Z,33.00
2018-04-16T18:08:31.708Z,32.70
2018-04-16T18:10:59.377Z,33.65
2018-04-16T18:13:27.121Z,35.05
2018-04-16T18:15:54.782Z,33.05
2018-04-16T18:18:22.362Z,32.95
2018-04-16T18:20:50.810Z,34.22
2018-04-16T18:23:18.406Z,32.65
2018-04-16T18:25:46.809Z,34.08
2018-04-16T18:28:14.466Z,33.25
2018-04-16T18:30:42.859Z,32.40
2018-04-16T18:33:11.214Z,35.25
2018-04-16T18:35:38.793Z,35.35
2018-04-16T18:38:06.386Z,35.17
2018-04-16T18:40:33.967Z,37.10
2018-04-16T18:43:02.317Z,38.47
2018-04-16T18:45:29.886Z,35.95
2018-04-16T18:47:57.521Z,36.38
2018-04-16T18:50:25.146Z,37.35
2018-04-16T18:52:52.825Z,35.80
2018-04-16T18:55:20.661Z,36.03
2018-04-16T18:57:48.354Z,33.17
2018-04-16T19:00:15.953Z,35.20
2018-04-16T19:02:43.545Z,35.60
2018-04-16T19:05:11.902Z,34.28
2018-04-16T19:07:39.529Z,34.90
2018-04-16T19:10:07.118Z,37.72
2018-04-16T19:12:34.703Z,37.25
2018-04-16T19:15:02.271Z,37.03
2018-04-16T19:17:29.882Z,35.53
2018-04-16T19:19:57.445Z,36.47
2018-04-16T19:22:25.084Z,35.53
2018-04-16T19:24:52.704Z,34.58
2018-04-16T19:27:26.056Z,38.13
2018-04-16T19:29:53.693Z,37.90
2018-04-16T19:32:22.142Z,36.80
2018-04-16T19:34:55.474Z,36.13
2018-04-16T19:37:23.165Z,38.00
2018-04-16T19:39:50.857Z,40.30
2018-04-16T19:42:24.141Z,41.88
2018-04-16T19:44:51.835Z,43.40
2018-04-16T19:47:20.234Z,40.83
2018-04-16T19:49:53.413Z,41.05
2018-04-16T19:52:21.187Z,37.80
2018-04-16T19:54:49.731Z,40.10
2018-04-16T19:57:22.941Z,38.72
2018-04-16T19:59:50.613Z,37.00
2018-04-16T20:02:23.853Z,36.60
2018-04-16T20:04:51.506Z,37.95
2018-04-16T20:07:19.283Z,31.20
2018-04-16T20:09:46.866Z,35.70
2018-04-16T20:12:14.553Z,33.72
2018-04-16T20:14:42.113Z,34.50
2018-04-16T20:17:09.727Z,32.88
2018-04-16T20:19:37.308Z,35.38
2018-04-16T20:22:05.665Z,34.22
2018-04-16T20:24:33.326Z,36.05
2018-04-16T20:27:00.905Z,34.25
2018-04-16T20:29:28.466Z,32.90
2018-04-16T20:31:56.045Z,36.05
2018-04-16T20:34:23.661Z,27.17
2018-04-16T20:36:52.035Z,29.48
2018-04-16T20:39:19.624Z,34.65
2018-04-16T20:41:48.062Z,50.03
2018-04-16T20:44:15.658Z,32.00
2018-04-16T20:46:43.218Z,28.40
2018-04-16T20:49:10.793Z,48.22
2018-04-16T20:51:38.389Z,43.63
2018-04-16T20:54:05.973Z,42.28
2018-04-16T20:56:33.617Z,34.45
2018-04-16T20:59:01.203Z,28.30
2018-04-16T21:01:28.764Z,34.75
2018-04-16T21:03:56.346Z,39.17
2018-04-16T21:06:24.101Z,42.50
2018-04-16T21:08:51.784Z,29.15
2018-04-16T21:11:19.483Z,60.72
2018-04-16T21:13:47.923Z,35.55
2018-04-16T21:16:15.545Z,32.10
2018-04-16T21:18:43.187Z,31.65
2018-04-16T21:21:10.828Z,26.92
2018-04-16T21:23:38.514Z,23.10
2018-04-16T21:26:06.304Z,22.52
2018-04-16T21:28:33.920Z,33.88
2018-04-16T21:31:01.553Z,22.70
2018-04-16T21:33:29.207Z,30.62
2018-04-16T21:35:56.854Z,30.05
2018-04-16T21:38:25.238Z,40.95
2018-04-16T21:40:52.910Z,29.52
2018-04-16T21:43:20.641Z,30.30
2018-04-16T21:45:48.309Z,27.58
2018-04-16T21:48:15.936Z,29.52
2018-04-16T21:50:43.641Z,38.85
2018-04-16T21:53:11.261Z,43.33
2018-04-16T21:55:38.926Z,38.90
2018-04-16T21:58:06.565Z,43.25
2018-04-16T22:00:34.233Z,55.65
2018-04-16T22:03:02.626Z,41.92
2018-04-16T22:05:30.310Z,59.30
2018-04-16T22:07:57.982Z,34.97
2018-04-16T22:10:25.648Z,26.17
2018-04-16T22:12:53.291Z,28.02
2018-04-16T22:15:20.932Z,30.10
2018-04-16T22:17:48.819Z,23.80
2018-04-16T22:20:16.449Z,25.73
2018-04-16T22:22:44.088Z,28.75
2018-04-16T22:25:11.738Z,28.42
2018-04-16T22:27:39.514Z,32.95
2018-04-16T22:30:07.277Z,27.20
2018-04-16T22:32:34.951Z,24.50
2018-04-16T22:35:02.601Z,37.42
2018-04-16T22:37:30.241Z,40.83
2018-04-16T22:39:57.946Z,45.72
2018-04-16T22:42:26.345Z,36.83
2018-04-16T22:44:53.963Z,34.90
2018-04-16T22:47:21.840Z,34.25
2018-04-16T22:49:49.478Z,28.60
2018-04-16T22:52:17.121Z,23.48
2018-04-16T22:54:45.641Z,27.10
2018-04-16T22:57:13.270Z,25.88
2018-04-16T22:59:40.906Z,26.65
2018-04-16T23:02:08.520Z,28.40
2018-04-16T23:04:36.152Z,26.10
2018-04-16T23:07:03.779Z,30.00
2018-04-16T23:09:32.194Z,25.90
2018-04-16T23:11:59.807Z,26.25
2018-04-16T23:14:27.437Z,25.23
2018-04-16T23:16:55.828Z,26.05
2018-04-16T23:19:24.326Z,25.65
2018-04-16T23:21:51.950Z,24.30
2018-04-16T23:24:19.752Z,24.30
2018-04-16T23:26:47.475Z,25.85
2018-04-16T23:29:15.356Z,26.17
2018-04-16T23:31:42.972Z,24.52
2018-04-16T23:34:10.585Z,26.85
2018-04-16T23:36:38.225Z,23.02
2018-04-16T23:39:05.840Z,23.10
2018-04-16T23:41:33.468Z,22.92
2018-04-16T23:44:01.868Z,22.87
2018-04-16T23:46:30.277Z,22.30
2018-04-16T23:48:58.427Z,24.63
2018-04-16T23:51:26.123Z,24.83
2018-04-16T23:53:53.752Z,24.27
2018-04-16T23:56:21.382Z,22.55
2018-04-16T23:58:49.783Z,22.90
